createdAt,value
2022-08-06T00:00:06.449Z,102937.06
2022-08-06T00:02:37.693Z,102938.72
2022-08-06T00:05:06.814Z,102935.19
2022-08-06T00:07:47.501Z,102931.66
2022-08-06T00:10:16.697Z,102924.56
2022-08-06T00:12:46.102Z,102922.75
2022-08-06T00:15:19.999Z,102916.59
2022-08-06T00:18:07.258Z,102922.56
2022-08-06T00:20:41.954Z,102925.91
2022-08-06T00:23:17.237Z,102924.81
2022-08-06T00:25:52.859Z,102924.66
2022-08-06T00:28:21.553Z,102925.41
2022-08-06T00:30:59.183Z,102920.88
2022-08-06T00:33:49.936Z,102925.84
2022-08-06T00:36:17.237Z,102928.22
2022-08-06T00:38:47.071Z,102917.59
2022-08-06T00:41:17.233Z,102922.66
2022-08-06T00:43:45.563Z,102920.03
2022-08-06T00:46:16.368Z,102914.66
2022-08-06T00:48:53.074Z,102918.13
2022-08-06T00:51:23.312Z,102917.25
2022-08-06T00:53:54.943Z,102925.84
2022-08-06T00:56:29.363Z,102923.88
2022-08-06T00:59:03.088Z,102923.69
2022-08-06T01:01:33.038Z,102926.19
2022-08-06T01:04:20.011Z,102920.06
2022-08-06T01:06:56.864Z,102923.47
2022-08-06T01:09:31.636Z,102923.31
2022-08-06T01:12:00.536Z,102921.59
2022-08-06T01:14:38.843Z,102924.19
2022-08-06T01:17:19.101Z,102914.63
2022-08-06T01:21:58.482Z,102919.81
2022-08-06T01:22:53.513Z,102918.84
2022-08-06T01:25:47.129Z,102924.91
2022-08-06T01:28:22.991Z,102925.81
2022-08-06T01:31:02.347Z,102928.28
2022-08-06T01:33:38.837Z,102924.72
2022-08-06T01:36:10.064Z,102927.13
2022-08-06T01:38:43.539Z,102920.06
2022-08-06T01:41:56.681Z,102920.75
2022-08-06T01:44:28.745Z,102918.81
2022-08-06T01:46:59.584Z,102922.09
2022-08-06T01:50:01.484Z,102922.84
2022-08-06T01:52:29.876Z,102921.03
2022-08-06T01:55:00.788Z,102916.50
2022-08-06T01:57:32.711Z,102916.31
2022-08-06T02:00:29.356Z,102923.06
2022-08-06T02:03:01.039Z,102916.06
2022-08-06T02:05:32.236Z,102912.47
2022-08-06T02:08:37.063Z,102913.13
2022-08-06T02:10:57.125Z,102906.06
2022-08-06T02:13:25.749Z,102911.19
2022-08-06T02:16:05.735Z,102909.44
2022-08-06T02:18:36.963Z,102906.63
2022-08-06T02:21:19.214Z,102916.03
2022-08-06T02:23:56.718Z,102919.38
2022-08-06T02:26:27.045Z,102920.16
2022-08-06T02:29:01.164Z,102914.00
2022-08-06T02:31:30.808Z,102928.72
2022-08-06T02:34:15.945Z,102920.81
2022-08-06T02:36:50.474Z,102923.41
2022-08-06T02:39:29.895Z,102923.34
2022-08-06T02:42:14.906Z,102921.50
2022-08-06T02:44:47.258Z,102917.25
2022-08-06T02:47:23.537Z,102914.56
2022-08-06T02:50:14.372Z,102911.88
2022-08-06T02:52:56.592Z,102923.16
2022-08-06T02:55:29.399Z,102909.22
2022-08-06T02:58:06.543Z,102914.41
2022-08-06T03:00:38.475Z,102909.22
2022-08-06T03:03:16.084Z,102909.22
2022-08-06T03:05:55.960Z,102903.25
2022-08-06T03:08:27.197Z,102896.28
2022-08-06T03:10:56.389Z,102902.22
2022-08-06T03:13:29.341Z,102903.78
2022-08-06T03:16:04.374Z,102900.25
2022-08-06T03:18:34.674Z,102902.59
2022-08-06T03:21:03.458Z,102903.34
2022-08-06T03:23:36.842Z,102898.94
2022-08-06T03:26:08.412Z,102902.19
2022-08-06T03:28:36.620Z,102899.53
2022-08-06T03:31:05.486Z,102901.97
2022-08-06T03:33:53.737Z,102903.69
2022-08-06T03:36:23.235Z,102913.91
2022-08-06T03:38:58.426Z,102908.59
2022-08-06T03:41:29.146Z,102923.09
2022-08-06T03:44:04.576Z,102918.59
2022-08-06T03:46:36.547Z,102913.34
2022-08-06T03:49:07.522Z,102921.94
2022-08-06T03:51:52.620Z,102914.97
2022-08-06T03:54:30.493Z,102917.50
2022-08-06T03:57:07.738Z,102919.19
2022-08-06T03:59:43.554Z,102918.31
2022-08-06T04:02:37.044Z,102917.34
2022-08-06T04:05:16.956Z,102915.56
2022-08-06T04:07:55.132Z,102910.41
2022-08-06T04:10:33.808Z,102917.28
2022-08-06T04:13:08.634Z,102916.34
2022-08-06T04:15:56.191Z,102930.94
2022-08-06T04:18:26.577Z,102935.25
2022-08-06T04:20:59.575Z,102930.00
2022-08-06T04:23:45.500Z,102931.56
2022-08-06T04:26:15.480Z,102929.81
2022-08-06T04:28:57.300Z,102933.25
2022-08-06T04:32:11.159Z,102929.06
2022-08-06T04:34:15.973Z,102925.50
2022-08-06T04:36:46.329Z,102924.63
2022-08-06T04:39:20.988Z,102925.50
2022-08-06T04:41:56.906Z,102928.91
2022-08-06T04:44:30.081Z,102923.72
2022-08-06T04:46:58.638Z,102921.13
2022-08-06T04:49:58.165Z,102924.75
2022-08-06T04:52:46.970Z,102925.78
2022-08-06T04:55:25.121Z,102926.75
2022-08-06T04:58:03.618Z,102927.69
2022-08-06T05:01:00.252Z,102933.91
2022-08-06T05:04:06.620Z,102929.91
2022-08-06T05:06:18.269Z,102930.03
2022-08-06T05:08:52.242Z,102933.72
2022-08-06T05:11:25.031Z,102936.59
2022-08-06T05:13:56.503Z,102930.88
2022-08-06T05:16:28.093Z,102945.72
2022-08-06T05:19:20.796Z,102942.47
2022-08-06T05:22:11.205Z,102941.94
2022-08-06T05:24:38.916Z,102935.38
2022-08-06T05:27:08.213Z,102935.88
2022-08-06T05:29:36.541Z,102931.00
2022-08-06T05:32:06.683Z,102928.81
2022-08-06T05:34:38.334Z,102937.94
2022-08-06T05:37:06.287Z,102935.75
2022-08-06T05:39:57.939Z,102934.38
2022-08-06T05:42:27.686Z,102932.88
2022-08-06T05:44:55.733Z,102928.72
2022-08-06T05:47:25.626Z,102933.28
2022-08-06T05:50:18.531Z,102924.88
2022-08-06T05:52:57.436Z,102924.91
2022-08-06T05:55:29.908Z,102938.16
2022-08-06T05:58:09.078Z,102923.78
2022-08-06T06:00:44.005Z,102924.31
2022-08-06T06:03:24.513Z,102927.44
2022-08-06T06:06:05.844Z,102930.59
2022-08-06T06:08:55.605Z,102936.16
2022-08-06T06:11:46.924Z,102935.56
2022-08-06T06:14:32.305Z,102939.91
2022-08-06T06:17:09.502Z,102941.56
2022-08-06T06:19:51.963Z,102944.88
2022-08-06T06:22:27.810Z,102943.00
2022-08-06T06:24:59.984Z,102944.75
2022-08-06T06:27:42.829Z,102953.44
2022-08-06T06:30:19.867Z,102939.47
2022-08-06T06:33:05.933Z,102952.31
2022-08-06T06:35:49.450Z,102961.88
2022-08-06T06:38:27.799Z,102953.19
2022-08-06T06:41:06.689Z,102960.88
2022-08-06T06:43:53.844Z,102957.50
2022-08-06T06:46:36.994Z,102964.41
2022-08-06T06:49:53.204Z,102961.16
2022-08-06T06:52:10.523Z,102964.88
2022-08-06T06:54:42.208Z,102961.72
2022-08-06T06:57:17.959Z,102980.16
2022-08-06T07:00:04.644Z,102973.63
2022-08-06T07:02:42.157Z,102967.00
2022-08-06T07:05:13.387Z,102970.78
2022-08-06T07:07:49.945Z,102972.09
2022-08-06T07:10:20.261Z,102975.13
2022-08-06T07:12:50.830Z,102974.53
2022-08-06T07:15:21.858Z,102975.66
2022-08-06T07:17:59.621Z,102977.56
2022-08-06T07:20:41.675Z,102980.59
2022-08-06T07:24:08.364Z,102977.44
2022-08-06T07:26:01.329Z,102971.94
2022-08-06T07:28:31.213Z,102976.66
2022-08-06T07:31:07.187Z,102979.66
2022-08-06T07:34:00.521Z,102979.13
2022-08-06T07:36:29.718Z,102983.97
2022-08-06T07:39:01.891Z,102975.66
2022-08-06T07:42:06.899Z,102982.91
2022-08-06T07:44:22.529Z,102979.75
2022-08-06T07:47:01.261Z,102981.59
2022-08-06T07:49:59.758Z,102974.78
2022-08-06T07:52:29.749Z,102984.59
2022-08-06T07:55:03.277Z,102976.03
2022-08-06T07:57:39.722Z,102982.50
2022-08-06T08:00:19.932Z,102987.97
2022-08-06T08:03:09.784Z,102977.78
2022-08-06T08:06:00.644Z,102971.06
2022-08-06T08:08:30.749Z,102981.66
2022-08-06T08:10:59.162Z,102973.09
2022-08-06T08:13:41.024Z,102981.22
2022-08-06T08:16:12.521Z,102978.59
2022-08-06T08:18:52.060Z,102975.34
2022-08-06T08:21:21.775Z,102974.69
2022-08-06T08:23:55.429Z,102975.78
2022-08-06T08:26:25.520Z,102971.03
2022-08-06T08:28:54.809Z,102966.28
2022-08-06T08:31:26.371Z,102974.31
2022-08-06T08:33:56.282Z,102977.50
2022-08-06T08:36:30.576Z,102962.63
2022-08-06T08:39:04.258Z,102963.97
2022-08-06T08:41:48.745Z,102967.22
2022-08-06T08:44:26.448Z,102961.28
2022-08-06T08:46:58.908Z,102963.81
2022-08-06T08:49:30.622Z,102954.75
2022-08-06T08:52:00.696Z,102954.78
2022-08-06T08:54:31.633Z,102958.97
2022-08-06T08:57:11.429Z,102957.44
2022-08-06T08:59:59.739Z,102958.59
2022-08-06T09:02:30.710Z,102952.81
2022-08-06T09:05:01.092Z,102950.38
2022-08-06T09:07:36.088Z,102946.72
2022-08-06T09:10:06.645Z,102952.81
2022-08-06T09:12:44.490Z,102943.38
2022-08-06T09:15:14.582Z,102943.03
2022-08-06T09:18:12.149Z,102948.38
2022-08-06T09:20:35.631Z,102950.09
2022-08-06T09:23:07.253Z,102948.78
2022-08-06T09:25:49.394Z,102951.63
2022-08-06T09:28:32.147Z,102947.28
2022-08-06T09:31:00.964Z,102950.81
2022-08-06T09:34:28.761Z,102952.47
2022-08-06T09:36:29.932Z,102955.94
2022-08-06T09:39:00.500Z,102963.75
2022-08-06T09:41:30.340Z,102973.28
2022-08-06T09:44:05.204Z,102968.88
2022-08-06T09:46:38.157Z,102972.38
2022-08-06T09:49:45.523Z,102976.84
2022-08-06T09:52:11.817Z,102975.09
2022-08-06T09:54:42.786Z,102969.88
2022-08-06T09:57:10.987Z,102970.75
2022-08-06T09:59:50.301Z,102977.66
2022-08-06T10:02:24.083Z,102972.53
2022-08-06T10:05:19.215Z,102977.84
2022-08-06T10:07:52.942Z,102973.47
2022-08-06T10:10:34.276Z,102980.53
2022-08-06T10:13:19.495Z,102974.41
2022-08-06T10:16:01.791Z,102970.03
2022-08-06T10:18:55.295Z,102964.72
2022-08-06T10:21:26.972Z,102959.50
2022-08-06T10:24:00.844Z,102956.06
2022-08-06T10:26:30.971Z,102952.53
2022-08-06T10:29:05.903Z,102951.63
2022-08-06T10:31:36.743Z,102956.91
2022-08-06T10:34:17.144Z,102953.38
2022-08-06T10:36:48.938Z,102956.00
2022-08-06T10:40:07.464Z,102946.34
2022-08-06T10:42:19.964Z,102949.88
2022-08-06T10:44:51.109Z,102945.47
2022-08-06T10:48:58.494Z,102940.19
2022-08-06T10:50:25.748Z,102937.47
2022-08-06T10:52:59.981Z,102936.44
2022-08-06T10:55:34.271Z,102927.56
2022-08-06T10:58:11.136Z,102923.03
2022-08-06T11:00:44.877Z,102921.00
2022-08-06T11:03:24.737Z,102921.44
2022-08-06T11:05:58.537Z,102924.50
2022-08-06T11:08:43.220Z,102918.91
2022-08-06T11:11:26.427Z,102930.59
2022-08-06T11:14:03.645Z,102923.78
2022-08-06T11:16:34.518Z,102923.41
2022-08-06T11:19:07.079Z,102925.59
2022-08-06T11:22:02.674Z,102917.22
2022-08-06T11:24:28.021Z,102917.16
2022-08-06T11:27:02.075Z,102908.13
2022-08-06T11:30:09.326Z,102923.00
2022-08-06T11:32:48.089Z,102914.66
2022-08-06T11:35:33.824Z,102919.47
2022-08-06T11:38:25.083Z,102919.13
2022-08-06T11:41:05.851Z,102913.34
2022-08-06T11:44:07.999Z,102918.91
2022-08-06T11:46:39.571Z,102911.81
2022-08-06T11:49:21.956Z,102922.44
2022-08-06T11:51:59.432Z,102913.53
2022-08-06T11:54:38.447Z,102908.38
2022-08-06T11:57:41.273Z,102921.06
2022-08-06T12:00:20.243Z,102912.28
2022-08-06T12:02:58.451Z,102920.78
2022-08-06T12:05:57.225Z,102909.19
2022-08-06T12:08:42.709Z,102904.47
2022-08-06T12:11:25.119Z,102910.19
2022-08-06T12:14:32.182Z,102908.72
2022-08-06T12:16:53.670Z,102909.28
2022-08-06T12:19:24.457Z,102914.88
2022-08-06T12:21:57.157Z,102912.50
2022-08-06T12:24:51.832Z,102907.19
2022-08-06T19:20:20.134Z,102755.13
2022-08-06T19:22:45.554Z,102755.06
2022-08-06T19:25:28.767Z,102756.81
2022-08-06T19:28:49.121Z,102760.28
2022-08-06T19:31:43.184Z,102754.16
2022-08-06T19:34:16.720Z,102763.75
2022-08-06T19:38:00.079Z,102758.47
2022-08-06T19:44:27.935Z,102766.25
2022-08-06T20:35:20.507Z,102795.59
2022-08-06T20:44:39.485Z,102803.75
2022-08-06T21:25:02.457Z,102801.91
2022-08-06T21:31:57.090Z,102811.09
2022-08-06T21:35:43.063Z,102809.25
2022-08-06T21:40:29.110Z,102810.03
